sensor_id;sensor_type;location;lat;lon;timestamp;temperature;humidity
52609;DHT22;38503;48.544;12.142;2022-12-18T00:00:47;-4.70;99.90
52609;DHT22;38503;48.544;12.142;2022-12-18T00:03:15;-4.70;99.90
52609;DHT22;38503;48.544;12.142;2022-12-18T00:05:52;-4.80;99.90
52609;DHT22;38503;48.544;12.142;2022-12-18T00:08:19;-4.70;99.90
52609;DHT22;38503;48.544;12.142;2022-12-18T00:10:46;-4.80;99.90
52609;DHT22;38503;48.544;12.142;2022-12-18T00:13:13;-4.70;99.90
52609;DHT22;38503;48.544;12.142;2022-12-18T00:15:40;-4.70;99.90
52609;DHT22;38503;48.544;12.142;2022-12-18T00:18:07;-4.70;99.90
52609;DHT22;38503;48.544;12.142;2022-12-18T00:20:38;-4.60;99.90
52609;DHT22;38503;48.544;12.142;2022-12-18T00:23:06;-4.60;99.90
52609;DHT22;38503;48.544;12.142;2022-12-18T00:25:34;-4.40;99.90
52609;DHT22;38503;48.544;12.142;2022-12-18T00:28:03;-4.50;99.90
52609;DHT22;38503;48.544;12.142;2022-12-18T00:30:29;-4.60;99.90
52609;DHT22;38503;48.544;12.142;2022-12-18T00:32:57;-4.60;99.90
52609;DHT22;38503;48.544;12.142;2022-12-18T00:35:24;-4.60;99.90
52609;DHT22;38503;48.544;12.142;2022-12-18T00:37:51;-4.50;99.90
52609;DHT22;38503;48.544;12.142;2022-12-18T00:40:18;-4.60;99.90
52609;DHT22;38503;48.544;12.142;2022-12-18T00:42:45;-4.60;99.90
52609;DHT22;38503;48.544;12.142;2022-12-18T00:45:31;-4.60;99.90
52609;DHT22;38503;48.544;12.142;2022-12-18T00:47:58;-4.70;99.90
52609;DHT22;38503;48.544;12.142;2022-12-18T00:50:25;-4.70;99.90
52609;DHT22;38503;48.544;12.142;2022-12-18T00:52:52;-4.60;99.90
52609;DHT22;38503;48.544;12.142;2022-12-18T00:55:19;-4.60;99.90
52609;DHT22;38503;48.544;12.142;2022-12-18T00:57:46;-4.70;99.90
52609;DHT22;38503;48.544;12.142;2022-12-18T01:00:14;-4.70;99.90
52609;DHT22;38503;48.544;12.142;2022-12-18T01:02:42;-4.70;99.90
52609;DHT22;38503;48.544;12.142;2022-12-18T01:05:12;-4.80;99.90
52609;DHT22;38503;48.544;12.142;2022-12-18T01:07:39;-4.80;99.90
52609;DHT22;38503;48.544;12.142;2022-12-18T01:10:08;-4.80;99.90
52609;DHT22;38503;48.544;12.142;2022-12-18T01:12:36;-4.80;99.90
52609;DHT22;38503;48.544;12.142;2022-12-18T01:15:04;-4.90;99.90
52609;DHT22;38503;48.544;12.142;2022-12-18T01:17:32;-4.80;99.90
52609;DHT22;38503;48.544;12.142;2022-12-18T01:19:59;-4.80;99.90
52609;DHT22;38503;48.544;12.142;2022-12-18T01:22:26;-4.80;99.90
52609;DHT22;38503;48.544;12.142;2022-12-18T01:24:53;-4.60;99.90
52609;DHT22;38503;48.544;12.142;2022-12-18T01:27:20;-4.70;99.90
52609;DHT22;38503;48.544;12.142;2022-12-18T01:29:47;-4.70;99.90
52609;DHT22;38503;48.544;12.142;2022-12-18T01:32:14;-4.70;99.90
52609;DHT22;38503;48.544;12.142;2022-12-18T01:34:40;-4.70;99.90
52609;DHT22;38503;48.544;12.142;2022-12-18T01:37:07;-4.70;99.90
52609;DHT22;38503;48.544;12.142;2022-12-18T01:39:34;-4.70;99.90
52609;DHT22;38503;48.544;12.142;2022-12-18T01:42:12;-4.60;99.90
52609;DHT22;38503;48.544;12.142;2022-12-18T01:47:30;-4.50;99.90
52609;DHT22;38503;48.544;12.142;2022-12-18T01:50:05;-4.40;99.90
52609;DHT22;38503;48.544;12.142;2022-12-18T01:52:33;-4.50;99.90
52609;DHT22;38503;48.544;12.142;2022-12-18T01:55:02;-4.40;99.90
52609;DHT22;38503;48.544;12.142;2022-12-18T01:57:31;-4.50;99.90
52609;DHT22;38503;48.544;12.142;2022-12-18T02:00:02;-4.40;99.90
52609;DHT22;38503;48.544;12.142;2022-12-18T02:02:30;-4.50;99.90
52609;DHT22;38503;48.544;12.142;2022-12-18T02:04:58;-4.50;99.90
52609;DHT22;38503;48.544;12.142;2022-12-18T02:10:20;-4.60;99.90
52609;DHT22;38503;48.544;12.142;2022-12-18T02:15:31;-4.60;99.90
52609;DHT22;38503;48.544;12.142;2022-12-18T02:20:36;-4.60;99.90
52609;DHT22;38503;48.544;12.142;2022-12-18T02:28:57;-4.60;99.90
52609;DHT22;38503;48.544;12.142;2022-12-18T02:31:28;-4.70;99.90
52609;DHT22;38503;48.544;12.142;2022-12-18T02:34:00;-4.70;99.90
52609;DHT22;38503;48.544;12.142;2022-12-18T02:36:28;-4.70;99.90
52609;DHT22;38503;48.544;12.142;2022-12-18T02:38:56;-4.70;99.90
52609;DHT22;38503;48.544;12.142;2022-12-18T02:41:23;-4.70;99.90
52609;DHT22;38503;48.544;12.142;2022-12-18T02:43:59;-4.80;99.90
52609;DHT22;38503;48.544;12.142;2022-12-18T02:46:58;-4.70;99.90
52609;DHT22;38503;48.544;12.142;2022-12-18T02:49:44;-4.70;99.90
52609;DHT22;38503;48.544;12.142;2022-12-18T02:52:24;-4.80;99.90
52609;DHT22;38503;48.544;12.142;2022-12-18T03:00:23;-4.80;99.90
52609;DHT22;38503;48.544;12.142;2022-12-18T03:02:59;-4.80;99.90
52609;DHT22;38503;48.544;12.142;2022-12-18T03:05:50;-4.70;99.90
52609;DHT22;38503;48.544;12.142;2022-12-18T03:08:39;-4.70;99.90
52609;DHT22;38503;48.544;12.142;2022-12-18T03:11:12;-4.70;99.90
52609;DHT22;38503;48.544;12.142;2022-12-18T03:13:52;-4.70;99.90
52609;DHT22;38503;48.544;12.142;2022-12-18T03:16:28;-4.70;99.90
52609;DHT22;38503;48.544;12.142;2022-12-18T03:19:24;-4.60;99.90
52609;DHT22;38503;48.544;12.142;2022-12-18T03:21:56;-4.60;99.90
52609;DHT22;38503;48.544;12.142;2022-12-18T03:24:26;-4.60;99.90
52609;DHT22;38503;48.544;12.142;2022-12-18T03:26:58;-4.60;99.90
52609;DHT22;38503;48.544;12.142;2022-12-18T03:29:36;-4.50;99.90
52609;DHT22;38503;48.544;12.142;2022-12-18T03:32:09;-4.50;99.90
52609;DHT22;38503;48.544;12.142;2022-12-18T03:34:39;-4.70;99.90
52609;DHT22;38503;48.544;12.142;2022-12-18T03:37:07;-4.60;99.90
52609;DHT22;38503;48.544;12.142;2022-12-18T03:39:34;-4.60;99.90
52609;DHT22;38503;48.544;12.142;2022-12-18T03:42:29;-4.70;99.90
52609;DHT22;38503;48.544;12.142;2022-12-18T03:47:42;-4.60;99.90
52609;DHT22;38503;48.544;12.142;2022-12-18T03:55:52;-4.60;99.90
52609;DHT22;38503;48.544;12.142;2022-12-18T03:58:23;-4.50;99.90
52609;DHT22;38503;48.544;12.142;2022-12-18T04:00:52;-4.50;99.90
52609;DHT22;38503;48.544;12.142;2022-12-18T04:03:21;-4.50;99.90
52609;DHT22;38503;48.544;12.142;2022-12-18T04:05:54;-4.50;99.90
52609;DHT22;38503;48.544;12.142;2022-12-18T04:08:22;-4.40;99.90
52609;DHT22;38503;48.544;12.142;2022-12-18T04:10:50;-4.40;99.90
52609;DHT22;38503;48.544;12.142;2022-12-18T04:13:24;-4.40;99.90
52609;DHT22;38503;48.544;12.142;2022-12-18T04:15:53;-4.40;99.90
52609;DHT22;38503;48.544;12.142;2022-12-18T04:18:20;-4.50;99.90
52609;DHT22;38503;48.544;12.142;2022-12-18T04:20:47;-4.50;99.90
52609;DHT22;38503;48.544;12.142;2022-12-18T04:23:14;-4.60;99.90
52609;DHT22;38503;48.544;12.142;2022-12-18T04:25:41;-4.60;99.90
52609;DHT22;38503;48.544;12.142;2022-12-18T04:28:08;-4.40;99.90
52609;DHT22;38503;48.544;12.142;2022-12-18T04:30:35;-4.70;99.90
52609;DHT22;38503;48.544;12.142;2022-12-18T04:33:02;-4.70;99.90
52609;DHT22;38503;48.544;12.142;2022-12-18T04:35:28;-4.80;99.90
52609;DHT22;38503;48.544;12.142;2022-12-18T04:37:55;-4.80;99.90
52609;DHT22;38503;48.544;12.142;2022-12-18T04:40:22;-4.70;99.90
52609;DHT22;38503;48.544;12.142;2022-12-18T04:42:49;-4.70;99.90
52609;DHT22;38503;48.544;12.142;2022-12-18T04:45:16;-4.60;99.90
52609;DHT22;38503;48.544;12.142;2022-12-18T04:47:43;-4.60;99.90
52609;DHT22;38503;48.544;12.142;2022-12-18T04:50:10;-4.60;99.90
52609;DHT22;38503;48.544;12.142;2022-12-18T04:52:37;-4.60;99.90
52609;DHT22;38503;48.544;12.142;2022-12-18T04:55:04;-4.50;99.90
52609;DHT22;38503;48.544;12.142;2022-12-18T04:57:31;-4.50;99.90
52609;DHT22;38503;48.544;12.142;2022-12-18T04:59:57;-4.50;99.90
52609;DHT22;38503;48.544;12.142;2022-12-18T05:02:24;-4.50;99.90
52609;DHT22;38503;48.544;12.142;2022-12-18T05:04:51;-4.40;99.90
52609;DHT22;38503;48.544;12.142;2022-12-18T05:07:18;-4.50;99.90
52609;DHT22;38503;48.544;12.142;2022-12-18T05:09:45;-4.50;99.90
52609;DHT22;38503;48.544;12.142;2022-12-18T05:12:12;-4.50;99.90
52609;DHT22;38503;48.544;12.142;2022-12-18T05:14:39;-4.50;99.90
52609;DHT22;38503;48.544;12.142;2022-12-18T05:17:05;-4.50;99.90
52609;DHT22;38503;48.544;12.142;2022-12-18T05:19:32;-4.50;99.90
52609;DHT22;38503;48.544;12.142;2022-12-18T05:21:59;-4.40;99.90
52609;DHT22;38503;48.544;12.142;2022-12-18T05:24:27;-4.40;99.90
52609;DHT22;38503;48.544;12.142;2022-12-18T05:26:54;-4.40;99.90
52609;DHT22;38503;48.544;12.142;2022-12-18T05:29:21;-4.40;99.90
52609;DHT22;38503;48.544;12.142;2022-12-18T05:31:48;-4.40;99.90
52609;DHT22;38503;48.544;12.142;2022-12-18T05:34:15;-4.40;99.90
52609;DHT22;38503;48.544;12.142;2022-12-18T05:36:42;-4.40;99.90
52609;DHT22;38503;48.544;12.142;2022-12-18T05:39:10;-4.50;99.90
52609;DHT22;38503;48.544;12.142;2022-12-18T05:41:37;-4.40;99.90
52609;DHT22;38503;48.544;12.142;2022-12-18T05:44:03;-4.40;99.90
52609;DHT22;38503;48.544;12.142;2022-12-18T05:46:31;-4.40;99.90
52609;DHT22;38503;48.544;12.142;2022-12-18T05:49:01;-4.60;99.90
52609;DHT22;38503;48.544;12.142;2022-12-18T05:51:28;-4.70;99.90
52609;DHT22;38503;48.544;12.142;2022-12-18T05:53:55;-4.70;99.90
52609;DHT22;38503;48.544;12.142;2022-12-18T05:56:22;-4.70;99.90
52609;DHT22;38503;48.544;12.142;2022-12-18T05:58:53;-4.60;99.90
52609;DHT22;38503;48.544;12.142;2022-12-18T06:01:23;-4.60;99.90
52609;DHT22;38503;48.544;12.142;2022-12-18T06:03:50;-4.60;99.90
52609;DHT22;38503;48.544;12.142;2022-12-18T06:06:20;-4.60;99.90
52609;DHT22;38503;48.544;12.142;2022-12-18T06:08:49;-4.50;99.90
52609;DHT22;38503;48.544;12.142;2022-12-18T06:11:18;-4.60;99.90
52609;DHT22;38503;48.544;12.142;2022-12-18T06:13:46;-4.50;99.90
52609;DHT22;38503;48.544;12.142;2022-12-18T06:16:13;-4.50;99.90
52609;DHT22;38503;48.544;12.142;2022-12-18T06:18:43;-4.50;99.90
52609;DHT22;38503;48.544;12.142;2022-12-18T06:21:10;-4.50;99.90
52609;DHT22;38503;48.544;12.142;2022-12-18T06:23:37;-4.50;99.90
52609;DHT22;38503;48.544;12.142;2022-12-18T06:26:14;-4.40;99.90
52609;DHT22;38503;48.544;12.142;2022-12-18T06:28:41;-4.50;99.90
52609;DHT22;38503;48.544;12.142;2022-12-18T06:31:09;-4.50;99.90
52609;DHT22;38503;48.544;12.142;2022-12-18T06:33:36;-4.50;99.90
52609;DHT22;38503;48.544;12.142;2022-12-18T06:36:08;-4.60;99.90
52609;DHT22;38503;48.544;12.142;2022-12-18T06:38:37;-4.50;99.90
52609;DHT22;38503;48.544;12.142;2022-12-18T06:41:14;-4.60;99.90
52609;DHT22;38503;48.544;12.142;2022-12-18T06:43:41;-4.50;99.90
52609;DHT22;38503;48.544;12.142;2022-12-18T06:46:09;-4.60;99.90
52609;DHT22;38503;48.544;12.142;2022-12-18T06:48:37;-4.60;99.90
52609;DHT22;38503;48.544;12.142;2022-12-18T06:51:04;-4.60;99.90
52609;DHT22;38503;48.544;12.142;2022-12-18T06:53:32;-4.70;99.90
52609;DHT22;38503;48.544;12.142;2022-12-18T06:56:06;-4.70;99.90
52609;DHT22;38503;48.544;12.142;2022-12-18T06:58:37;-4.60;99.90
52609;DHT22;38503;48.544;12.142;2022-12-18T07:01:07;-4.60;99.90
52609;DHT22;38503;48.544;12.142;2022-12-18T07:03:34;-4.60;99.90
52609;DHT22;38503;48.544;12.142;2022-12-18T07:06:01;-4.60;99.90
52609;DHT22;38503;48.544;12.142;2022-12-18T07:08:29;-4.50;99.90
52609;DHT22;38503;48.544;12.142;2022-12-18T07:10:56;-4.50;99.90
52609;DHT22;38503;48.544;12.142;2022-12-18T07:13:23;-4.50;99.90
52609;DHT22;38503;48.544;12.142;2022-12-18T07:15:50;-4.40;99.90
52609;DHT22;38503;48.544;12.142;2022-12-18T07:18:20;-4.40;99.90
52609;DHT22;38503;48.544;12.142;2022-12-18T07:20:47;-4.40;99.90
52609;DHT22;38503;48.544;12.142;2022-12-18T07:23:14;-4.40;99.90
52609;DHT22;38503;48.544;12.142;2022-12-18T07:25:41;-4.30;99.90
52609;DHT22;38503;48.544;12.142;2022-12-18T07:28:08;-4.30;99.90
52609;DHT22;38503;48.544;12.142;2022-12-18T07:30:42;-4.20;99.90
52609;DHT22;38503;48.544;12.142;2022-12-18T07:33:09;-4.20;99.90
52609;DHT22;38503;48.544;12.142;2022-12-18T07:35:36;-4.30;99.90
52609;DHT22;38503;48.544;12.142;2022-12-18T07:38:03;-4.30;99.90
52609;DHT22;38503;48.544;12.142;2022-12-18T07:40:29;-4.30;99.90
52609;DHT22;38503;48.544;12.142;2022-12-18T07:42:56;-4.20;99.90
52609;DHT22;38503;48.544;12.142;2022-12-18T07:45:23;-4.20;99.90
52609;DHT22;38503;48.544;12.142;2022-12-18T07:47:50;-4.20;99.90
52609;DHT22;38503;48.544;12.142;2022-12-18T07:50:17;-4.10;99.90
52609;DHT22;38503;48.544;12.142;2022-12-18T07:52:44;-4.20;99.90
52609;DHT22;38503;48.544;12.142;2022-12-18T07:55:11;-4.10;99.90
52609;DHT22;38503;48.544;12.142;2022-12-18T07:57:37;-4.20;99.90
52609;DHT22;38503;48.544;12.142;2022-12-18T08:00:17;-4.20;99.90
52609;DHT22;38503;48.544;12.142;2022-12-18T08:02:44;-4.20;99.90
52609;DHT22;38503;48.544;12.142;2022-12-18T08:05:11;-4.20;99.90
52609;DHT22;38503;48.544;12.142;2022-12-18T08:07:38;-4.20;99.90
52609;DHT22;38503;48.544;12.142;2022-12-18T08:10:06;-4.20;99.90
52609;DHT22;38503;48.544;12.142;2022-12-18T08:12:33;-4.20;99.90
52609;DHT22;38503;48.544;12.142;2022-12-18T08:15:00;-4.20;99.90
52609;DHT22;38503;48.544;12.142;2022-12-18T08:17:27;-4.20;99.90
52609;DHT22;38503;48.544;12.142;2022-12-18T08:19:54;-4.20;99.90
52609;DHT22;38503;48.544;12.142;2022-12-18T08:22:21;-4.10;99.90
52609;DHT22;38503;48.544;12.142;2022-12-18T08:24:48;-3.90;99.90
52609;DHT22;38503;48.544;12.142;2022-12-18T08:27:15;-3.90;99.90
52609;DHT22;38503;48.544;12.142;2022-12-18T08:29:58;-3.90;99.90
52609;DHT22;38503;48.544;12.142;2022-12-18T08:32:26;-3.90;99.90
52609;DHT22;38503;48.544;12.142;2022-12-18T08:34:53;-3.80;99.90
52609;DHT22;38503;48.544;12.142;2022-12-18T08:37:20;-3.80;99.90
52609;DHT22;38503;48.544;12.142;2022-12-18T08:39:47;-3.80;99.90
52609;DHT22;38503;48.544;12.142;2022-12-18T08:42:14;-3.70;99.90
52609;DHT22;38503;48.544;12.142;2022-12-18T08:44:59;-3.70;99.90
52609;DHT22;38503;48.544;12.142;2022-12-18T08:47:26;-3.70;99.90
52609;DHT22;38503;48.544;12.142;2022-12-18T08:49:53;-3.60;99.90
52609;DHT22;38503;48.544;12.142;2022-12-18T08:52:20;-3.60;99.90
52609;DHT22;38503;48.544;12.142;2022-12-18T08:54:47;-3.50;99.90
52609;DHT22;38503;48.544;12.142;2022-12-18T08:57:14;-3.60;99.90
52609;DHT22;38503;48.544;12.142;2022-12-18T08:59:40;-3.40;99.90
52609;DHT22;38503;48.544;12.142;2022-12-18T09:02:10;-3.60;99.90
52609;DHT22;38503;48.544;12.142;2022-12-18T09:04:37;-3.70;99.90
52609;DHT22;38503;48.544;12.142;2022-12-18T09:07:06;-3.70;99.90
52609;DHT22;38503;48.544;12.142;2022-12-18T09:09:33;-3.20;99.90
52609;DHT22;38503;48.544;12.142;2022-12-18T09:12:00;-3.60;99.90
52609;DHT22;38503;48.544;12.142;2022-12-18T09:14:27;-3.80;99.90
52609;DHT22;38503;48.544;12.142;2022-12-18T09:16:54;-3.70;99.90
52609;DHT22;38503;48.544;12.142;2022-12-18T09:19:21;-3.60;99.90
52609;DHT22;38503;48.544;12.142;2022-12-18T09:21:51;-3.60;99.90
52609;DHT22;38503;48.544;12.142;2022-12-18T09:24:18;-3.50;99.90
52609;DHT22;38503;48.544;12.142;2022-12-18T09:26:45;-3.50;99.90
52609;DHT22;38503;48.544;12.142;2022-12-18T09:29:14;-3.40;99.90
52609;DHT22;38503;48.544;12.142;2022-12-18T09:31:41;-3.40;99.90
52609;DHT22;38503;48.544;12.142;2022-12-18T09:34:08;-3.40;99.90
52609;DHT22;38503;48.544;12.142;2022-12-18T09:36:35;-3.40;99.90
52609;DHT22;38503;48.544;12.142;2022-12-18T09:39:02;-3.50;99.90
52609;DHT22;38503;48.544;12.142;2022-12-18T09:41:53;-3.30;99.90
52609;DHT22;38503;48.544;12.142;2022-12-18T09:44:34;-3.40;99.90
52609;DHT22;38503;48.544;12.142;2022-12-18T09:47:30;-3.30;99.90
52609;DHT22;38503;48.544;12.142;2022-12-18T09:50:04;-3.40;99.90
52609;DHT22;38503;48.544;12.142;2022-12-18T09:52:39;-3.50;99.90
52609;DHT22;38503;48.544;12.142;2022-12-18T09:57:56;-3.50;99.90
52609;DHT22;38503;48.544;12.142;2022-12-18T10:00:25;-3.40;99.90
52609;DHT22;38503;48.544;12.142;2022-12-18T10:02:58;-3.20;99.90
52609;DHT22;38503;48.544;12.142;2022-12-18T10:05:43;-3.20;99.90
52609;DHT22;38503;48.544;12.142;2022-12-18T10:14:03;-2.90;99.90
52609;DHT22;38503;48.544;12.142;2022-12-18T10:16:45;-2.70;99.90
52609;DHT22;38503;48.544;12.142;2022-12-18T10:19:44;-2.50;99.90
52609;DHT22;38503;48.544;12.142;2022-12-18T10:22:26;-2.70;99.90
52609;DHT22;38503;48.544;12.142;2022-12-18T10:25:15;-2.80;99.90
52609;DHT22;38503;48.544;12.142;2022-12-18T10:27:45;-2.80;99.90
52609;DHT22;38503;48.544;12.142;2022-12-18T10:30:18;-2.70;99.90
52609;DHT22;38503;48.544;12.142;2022-12-18T10:32:46;-2.60;99.90
52609;DHT22;38503;48.544;12.142;2022-12-18T10:35:25;-2.50;99.90
52609;DHT22;38503;48.544;12.142;2022-12-18T10:40:52;-2.50;99.90
52609;DHT22;38503;48.544;12.142;2022-12-18T10:48:27;-2.30;99.90
52609;DHT22;38503;48.544;12.142;2022-12-18T10:50:54;-2.50;99.90
52609;DHT22;38503;48.544;12.142;2022-12-18T10:53:40;-2.70;99.90
52609;DHT22;38503;48.544;12.142;2022-12-18T10:56:08;-2.80;99.90
52609;DHT22;38503;48.544;12.142;2022-12-18T10:58:37;-2.90;99.90
52609;DHT22;38503;48.544;12.142;2022-12-18T11:01:17;-2.80;99.90
52609;DHT22;38503;48.544;12.142;2022-12-18T11:03:46;-2.80;99.90
52609;DHT22;38503;48.544;12.142;2022-12-18T11:06:28;-3.00;99.90
52609;DHT22;38503;48.544;12.142;2022-12-18T11:09:21;-2.70;99.90
52609;DHT22;38503;48.544;12.142;2022-12-18T11:11:53;-2.50;99.90
52609;DHT22;38503;48.544;12.142;2022-12-18T11:14:29;-2.60;99.90
52609;DHT22;38503;48.544;12.142;2022-12-18T11:16:59;-3.00;99.90
52609;DHT22;38503;48.544;12.142;2022-12-18T11:20:02;-3.10;99.90
52609;DHT22;38503;48.544;12.142;2022-12-18T11:22:37;-3.00;99.90
52609;DHT22;38503;48.544;12.142;2022-12-18T11:25:18;-3.10;99.90
52609;DHT22;38503;48.544;12.142;2022-12-18T11:28:02;-3.30;99.90
52609;DHT22;38503;48.544;12.142;2022-12-18T11:30:37;-3.50;99.90
52609;DHT22;38503;48.544;12.142;2022-12-18T11:33:19;-3.40;99.90
52609;DHT22;38503;48.544;12.142;2022-12-18T11:35:52;-3.20;99.90
52609;DHT22;38503;48.544;12.142;2022-12-18T11:38:33;-3.10;99.90
52609;DHT22;38503;48.544;12.142;2022-12-18T11:41:05;-3.00;99.90
52609;DHT22;38503;48.544;12.142;2022-12-18T11:43:40;-3.10;99.90
52609;DHT22;38503;48.544;12.142;2022-12-18T11:46:13;-3.10;99.90
52609;DHT22;38503;48.544;12.142;2022-12-18T11:49:01;-3.00;99.90
52609;DHT22;38503;48.544;12.142;2022-12-18T11:51:43;-3.10;99.90
52609;DHT22;38503;48.544;12.142;2022-12-18T11:54:15;-2.80;99.90
52609;DHT22;38503;48.544;12.142;2022-12-18T12:08:07;-2.50;99.90
52609;DHT22;38503;48.544;12.142;2022-12-18T12:16:27;-2.60;99.90
52609;DHT22;38503;48.544;12.142;2022-12-18T12:26:44;-2.60;99.90
52609;DHT22;38503;48.544;12.142;2022-12-18T12:29:23;-2.50;99.90
52609;DHT22;38503;48.544;12.142;2022-12-18T12:32:13;-2.60;99.90
52609;DHT22;38503;48.544;12.142;2022-12-18T12:37:52;-2.40;99.90
52609;DHT22;38503;48.544;12.142;2022-12-18T12:40:24;-2.30;99.90
52609;DHT22;38503;48.544;12.142;2022-12-18T12:46:06;-2.50;99.90
52609;DHT22;38503;48.544;12.142;2022-12-18T12:48:53;-2.70;99.90
52609;DHT22;38503;48.544;12.142;2022-12-18T12:51:28;-1.90;99.90
52609;DHT22;38503;48.544;12.142;2022-12-18T12:53:57;-2.70;99.90
52609;DHT22;38503;48.544;12.142;2022-12-18T12:56:51;-2.60;99.90
52609;DHT22;38503;48.544;12.142;2022-12-18T12:59:45;-2.70;99.90
52609;DHT22;38503;48.544;12.142;2022-12-18T13:02:44;-2.30;99.90
52609;DHT22;38503;48.544;12.142;2022-12-18T13:05:25;-2.20;99.90
52609;DHT22;38503;48.544;12.142;2022-12-18T13:08:08;-2.30;99.90
52609;DHT22;38503;48.544;12.142;2022-12-18T13:10:41;-2.40;99.90
52609;DHT22;38503;48.544;12.142;2022-12-18T13:18:29;-2.70;99.90
52609;DHT22;38503;48.544;12.142;2022-12-18T13:23:32;-3.00;99.90
52609;DHT22;38503;48.544;12.142;2022-12-18T13:31:00;-2.80;99.90
52609;DHT22;38503;48.544;12.142;2022-12-18T13:33:46;-2.90;99.90
52609;DHT22;38503;48.544;12.142;2022-12-18T13:36:34;-3.00;99.90
52609;DHT22;38503;48.544;12.142;2022-12-18T13:39:31;-2.90;99.90
52609;DHT22;38503;48.544;12.142;2022-12-18T13:45:40;-2.80;99.90
52609;DHT22;38503;48.544;12.142;2022-12-18T13:48:20;-2.80;99.90
52609;DHT22;38503;48.544;12.142;2022-12-18T13:51:07;-2.70;99.90
52609;DHT22;38503;48.544;12.142;2022-12-18T13:56:05;-2.90;99.90
52609;DHT22;38503;48.544;12.142;2022-12-18T13:58:33;-2.90;99.90
52609;DHT22;38503;48.544;12.142;2022-12-18T14:01:00;-3.00;99.90
52609;DHT22;38503;48.544;12.142;2022-12-18T14:03:30;-3.00;99.90
52609;DHT22;38503;48.544;12.142;2022-12-18T14:06:03;-3.10;99.90
52609;DHT22;38503;48.544;12.142;2022-12-18T14:08:39;-3.10;99.90
52609;DHT22;38503;48.544;12.142;2022-12-18T14:11:19;-3.10;99.90
52609;DHT22;38503;48.544;12.142;2022-12-18T14:13:47;-3.20;99.90
52609;DHT22;38503;48.544;12.142;2022-12-18T14:16:16;-2.80;99.90
52609;DHT22;38503;48.544;12.142;2022-12-18T14:21:27;-3.30;99.90
52609;DHT22;38503;48.544;12.142;2022-12-18T14:24:06;-3.30;99.90
52609;DHT22;38503;48.544;12.142;2022-12-18T14:26:33;-3.40;99.90
52609;DHT22;38503;48.544;12.142;2022-12-18T14:29:24;-3.50;99.90
52609;DHT22;38503;48.544;12.142;2022-12-18T14:32:15;-3.60;99.90
52609;DHT22;38503;48.544;12.142;2022-12-18T14:34:46;-3.60;99.90
52609;DHT22;38503;48.544;12.142;2022-12-18T14:37:16;-3.70;99.90
52609;DHT22;38503;48.544;12.142;2022-12-18T14:40:01;-3.70;99.90
52609;DHT22;38503;48.544;12.142;2022-12-18T14:42:36;-3.80;99.90
52609;DHT22;38503;48.544;12.142;2022-12-18T14:48:16;-3.80;99.90
52609;DHT22;38503;48.544;12.142;2022-12-18T14:51:00;-3.80;99.90
52609;DHT22;38503;48.544;12.142;2022-12-18T14:53:48;-3.90;99.90
52609;DHT22;38503;48.544;12.142;2022-12-18T14:56:26;-3.90;99.90
52609;DHT22;38503;48.544;12.142;2022-12-18T14:58:58;-4.00;99.90
52609;DHT22;38503;48.544;12.142;2022-12-18T15:01:37;-4.00;99.90
52609;DHT22;38503;48.544;12.142;2022-12-18T15:04:30;-4.00;99.90
52609;DHT22;38503;48.544;12.142;2022-12-18T15:09:42;-4.10;99.90
52609;DHT22;38503;48.544;12.142;2022-12-18T15:12:35;-4.20;99.90
52609;DHT22;38503;48.544;12.142;2022-12-18T15:15:04;-4.20;99.90
52609;DHT22;38503;48.544;12.142;2022-12-18T15:17:31;-4.20;99.90
52609;DHT22;38503;48.544;12.142;2022-12-18T15:20:01;-4.30;99.90
52609;DHT22;38503;48.544;12.142;2022-12-18T15:22:31;-4.30;99.90
52609;DHT22;38503;48.544;12.142;2022-12-18T15:25:00;-4.30;99.90
52609;DHT22;38503;48.544;12.142;2022-12-18T15:27:35;-4.30;99.90
52609;DHT22;38503;48.544;12.142;2022-12-18T15:32:38;-4.40;99.90
52609;DHT22;38503;48.544;12.142;2022-12-18T15:35:23;-4.40;99.90
52609;DHT22;38503;48.544;12.142;2022-12-18T15:37:51;-4.50;99.90
52609;DHT22;38503;48.544;12.142;2022-12-18T15:40:20;-4.50;99.90
52609;DHT22;38503;48.544;12.142;2022-12-18T15:42:48;-4.50;99.90
52609;DHT22;38503;48.544;12.142;2022-12-18T15:45:39;-4.50;99.90
52609;DHT22;38503;48.544;12.142;2022-12-18T15:48:21;-4.60;99.90
52609;DHT22;38503;48.544;12.142;2022-12-18T15:50:50;-4.60;99.90
52609;DHT22;38503;48.544;12.142;2022-12-18T15:53:18;-4.60;99.90
52609;DHT22;38503;48.544;12.142;2022-12-18T15:55:45;-4.60;99.90
52609;DHT22;38503;48.544;12.142;2022-12-18T15:58:30;-4.60;99.90
52609;DHT22;38503;48.544;12.142;2022-12-18T16:00:58;-4.40;99.90
52609;DHT22;38503;48.544;12.142;2022-12-18T16:03:25;-4.70;99.90
52609;DHT22;38503;48.544;12.142;2022-12-18T16:05:52;-4.70;99.90
52609;DHT22;38503;48.544;12.142;2022-12-18T16:08:19;-4.80;99.90
52609;DHT22;38503;48.544;12.142;2022-12-18T16:10:46;-4.80;99.90
52609;DHT22;38503;48.544;12.142;2022-12-18T16:13:16;-4.90;99.90
52609;DHT22;38503;48.544;12.142;2022-12-18T16:15:45;-4.90;99.90
52609;DHT22;38503;48.544;12.142;2022-12-18T16:18:12;-4.90;99.90
52609;DHT22;38503;48.544;12.142;2022-12-18T16:20:39;-4.90;99.90
52609;DHT22;38503;48.544;12.142;2022-12-18T16:23:06;-4.90;99.90
52609;DHT22;38503;48.544;12.142;2022-12-18T16:25:33;-5.00;99.90
52609;DHT22;38503;48.544;12.142;2022-12-18T16:28:00;-5.10;99.90
52609;DHT22;38503;48.544;12.142;2022-12-18T16:30:29;-5.10;99.90
52609;DHT22;38503;48.544;12.142;2022-12-18T16:33:04;-5.10;99.90
52609;DHT22;38503;48.544;12.142;2022-12-18T16:35:33;-5.10;99.90
52609;DHT22;38503;48.544;12.142;2022-12-18T16:38:00;-5.10;99.90
52609;DHT22;38503;48.544;12.142;2022-12-18T16:40:26;-5.00;99.90
52609;DHT22;38503;48.544;12.142;2022-12-18T16:42:53;-5.00;99.90
52609;DHT22;38503;48.544;12.142;2022-12-18T16:45:20;-5.00;99.90
52609;DHT22;38503;48.544;12.142;2022-12-18T16:47:47;-5.00;99.90
52609;DHT22;38503;48.544;12.142;2022-12-18T16:50:14;-5.10;99.90
52609;DHT22;38503;48.544;12.142;2022-12-18T16:52:41;-4.90;99.90
52609;DHT22;38503;48.544;12.142;2022-12-18T16:55:08;-5.10;99.90
52609;DHT22;38503;48.544;12.142;2022-12-18T16:57:35;-5.20;99.90
52609;DHT22;38503;48.544;12.142;2022-12-18T17:00:03;-5.20;99.90
52609;DHT22;38503;48.544;12.142;2022-12-18T17:02:32;-5.20;99.90
52609;DHT22;38503;48.544;12.142;2022-12-18T17:04:59;-5.20;99.90
52609;DHT22;38503;48.544;12.142;2022-12-18T17:07:27;-5.30;99.90
52609;DHT22;38503;48.544;12.142;2022-12-18T17:09:54;-5.30;99.90
52609;DHT22;38503;48.544;12.142;2022-12-18T17:12:21;-5.30;99.90
52609;DHT22;38503;48.544;12.142;2022-12-18T17:14:48;-5.30;99.90
52609;DHT22;38503;48.544;12.142;2022-12-18T17:17:16;-5.30;99.90
52609;DHT22;38503;48.544;12.142;2022-12-18T17:19:49;-5.40;99.90
52609;DHT22;38503;48.544;12.142;2022-12-18T17:22:16;-5.40;99.90
52609;DHT22;38503;48.544;12.142;2022-12-18T17:24:43;-5.50;99.90
52609;DHT22;38503;48.544;12.142;2022-12-18T17:27:10;-5.50;99.90
52609;DHT22;38503;48.544;12.142;2022-12-18T17:29:36;-5.60;99.90